Time;durP1;ratioP1;P1;durP2;ratioP2;P2;SDS_P1;SDS_P2;PMS_P1;PMS_P2;Temp;Humidity;BMP_temperature;BMP_pressure;BME280_temperature;BME280_humidity;BME280_pressure;Samples;Min_cycle;Max_cycle;Signal;HPM_P1;HPM_P2
2022/01/19 00:01:18;;;;;;;0.80;0.30;;;22.80;45.40;;;;;;5082736;28;20044;-51
2022/01/19 00:03:44;;;;;;;0.43;0.30;;;22.90;45.30;;;;;;5082273;28;20046;-50
2022/01/19 00:06:10;;;;;;;0.95;0.38;;;23.00;45.30;;;;;;5105545;28;20660;-51
2022/01/19 00:08:36;;;;;;;0.50;0.40;;;23.10;45.10;;;;;;5101704;28;20028;-51
2022/01/19 00:11:02;;;;;;;0.40;0.30;;;22.90;45.10;;;;;;5101212;28;20036;-53
2022/01/19 00:13:28;;;;;;;0.80;0.45;;;22.90;45.50;;;;;;5103778;28;20416;-48
2022/01/19 00:15:54;;;;;;;0.55;0.40;;;22.90;45.30;;;;;;5105528;28;20116;-50
2022/01/19 00:18:22;;;;;;;0.80;0.40;;;22.90;45.10;;;;;;5101311;28;20051;-48
2022/01/19 00:20:48;;;;;;;0.57;0.38;;;23.00;45.10;;;;;;5105214;28;20038;-47
2022/01/19 00:23:18;;;;;;;0.60;0.30;;;23.10;45.00;;;;;;5081612;28;20038;-48
2022/01/19 00:25:45;;;;;;;0.43;0.35;;;23.20;45.00;;;;;;5101876;28;20078;-47
2022/01/19 00:28:11;;;;;;;0.35;0.30;;;23.10;45.60;;;;;;5103109;28;20032;-50
2022/01/19 00:30:38;;;;;;;2.08;0.40;;;23.00;45.20;;;;;;5101043;28;20044;-49
2022/01/19 00:33:04;;;;;;;0.40;0.40;;;23.00;45.50;;;;;;5102770;28;20139;-50
2022/01/19 00:35:30;;;;;;;2.05;0.50;;;23.00;45.00;;;;;;5107778;28;20087;-48
2022/01/19 00:37:57;;;;;;;1.08;0.28;;;23.10;44.90;;;;;;5102006;28;20534;-49
2022/01/19 00:40:23;;;;;;;0.45;0.40;;;23.10;44.80;;;;;;5085428;28;20110;-48
2022/01/19 00:42:49;;;;;;;0.40;0.40;;;23.30;44.70;;;;;;5106314;28;20105;-50
2022/01/19 00:45:15;;;;;;;0.80;0.50;;;23.30;44.70;;;;;;5102055;28;20043;-52
2022/01/19 00:47:42;;;;;;;0.70;0.40;;;23.20;45.00;;;;;;5084216;28;20039;-47
2022/01/19 00:50:11;;;;;;;0.50;0.40;;;23.10;45.20;;;;;;5082990;28;20032;-50
2022/01/19 00:52:37;;;;;;;0.50;0.40;;;23.10;44.90;;;;;;5106725;28;20280;-50
2022/01/19 00:55:06;;;;;;;0.88;0.60;;;23.10;44.60;;;;;;5113830;28;20016;-51
2022/01/19 00:57:32;;;;;;;0.82;0.40;;;23.20;44.50;;;;;;5113499;28;20361;-51
2022/01/19 00:59:58;;;;;;;0.63;0.40;;;23.20;44.50;;;;;;5110191;28;20032;-51
2022/01/19 01:02:25;;;;;;;0.70;0.38;;;23.30;44.50;;;;;;5101572;28;20628;-51
2022/01/19 01:04:51;;;;;;;0.68;0.30;;;23.20;44.80;;;;;;5085072;28;20400;-53
2022/01/19 01:07:17;;;;;;;1.13;0.50;;;23.10;45.10;;;;;;5100885;28;20035;-52
2022/01/19 01:09:45;;;;;;;0.85;0.40;;;23.10;45.20;;;;;;5100648;28;20032;-48
2022/01/19 01:12:20;;;;;;;;;;;23.10;44.60;;;;;;5100083;28;20060;-47
2022/01/19 01:20:16;;;;;;;10.65;0.63;;;23.30;44.50;;;;;;5100969;28;20067;-50
2022/01/19 01:22:42;;;;;;;0.30;0.30;;;23.40;44.10;;;;;;5100728;28;20036;-52
2022/01/19 01:25:08;;;;;;;1.33;0.52;;;23.30;44.60;;;;;;5105442;28;20056;-50
2022/01/19 01:27:34;;;;;;;0.90;0.45;;;23.20;44.70;;;;;;5120839;28;20027;-51
2022/01/19 01:30:00;;;;;;;0.77;0.40;;;23.10;44.70;;;;;;5096442;28;20811;-48
2022/01/19 01:32:27;;;;;;;2.90;0.50;;;23.20;44.40;;;;;;5096983;28;20038;-52
2022/01/19 01:34:54;;;;;;;0.57;0.40;;;23.30;44.20;;;;;;5082906;28;20637;-50
2022/01/19 01:37:20;;;;;;;2.42;0.60;;;23.40;44.10;;;;;;5101389;28;20062;-50
2022/01/19 01:39:46;;;;;;;0.95;0.40;;;23.40;43.90;;;;;;5101281;28;20476;-53
2022/01/19 01:42:13;;;;;;;0.55;0.45;;;23.30;44.40;;;;;;5101482;28;20059;-51
2022/01/19 01:44:44;;;;;;;1.20;0.40;;;23.20;44.60;;;;;;5106571;28;20020;-46
2022/01/19 01:47:11;;;;;;;0.50;0.40;;;23.20;44.60;;;;;;5102501;28;20050;-47
2022/01/19 01:54:51;;;;;;;0.70;0.50;;;23.40;44.10;;;;;;5103948;28;20031;-51
2022/01/19 01:57:17;;;;;;;0.90;0.60;;;23.40;44.10;;;;;;5104992;28;20024;-52
2022/01/19 01:59:44;;;;;;;0.82;0.50;;;23.30;44.50;;;;;;5104483;28;20097;-50
2022/01/19 02:02:10;;;;;;;0.77;0.50;;;23.20;44.70;;;;;;5104041;28;20031;-46
2022/01/19 02:04:40;;;;;;;1.30;0.60;;;23.20;44.70;;;;;;5110042;28;20028;-49
2022/01/19 02:09:37;;;;;;;1.52;0.60;;;23.20;44.30;;;;;;5104817;28;20027;-47
2022/01/19 02:25:58;;;;;;;0.60;0.40;;;23.20;44.20;;;;;;5109798;28;20288;-52
2022/01/19 02:41:46;;;;;;;0.80;0.63;;;23.10;44.70;;;;;;5103563;28;20108;-51
2022/01/19 02:44:16;;;;;;;0.70;0.60;;;23.10;44.30;;;;;;5104065;28;20040;-50
2022/01/19 02:49:21;;;;;;;2.05;0.45;;;23.30;44.00;;;;;;5102265;28;20421;-50
2022/01/19 02:51:50;;;;;;;0.65;0.65;;;23.20;44.30;;;;;;5097221;28;20129;-53
2022/01/19 02:54:21;;;;;;;0.70;0.60;;;23.20;44.70;;;;;;5103478;28;20119;-49
2022/01/19 02:56:51;;;;;;;2.35;0.68;;;23.10;44.90;;;;;;5085043;28;20027;-53
2022/01/19 02:59:31;;;;;;;0.60;0.50;;;23.10;44.70;;;;;;5102558;28;20031;-51
2022/01/19 03:10:11;;;;;;;0.88;0.80;;;23.20;44.40;;;;;;5103444;28;20031;-52
2022/01/19 03:12:38;;;;;;;2.97;0.60;;;23.10;44.70;;;;;;5090518;28;20048;-52
2022/01/19 03:15:04;;;;;;;;;;;23.00;44.70;;;;;;5084188;28;20032;-51
2022/01/19 03:17:31;;;;;;;0.47;0.45;;;22.90;44.30;;;;;;5082758;28;19916;-50
2022/01/19 03:19:57;;;;;;;1.67;0.90;;;23.00;44.10;;;;;;5082632;28;20036;-51
2022/01/19 03:22:29;;;;;;;1.00;0.70;;;23.10;44.00;;;;;;5080291;28;20055;-52
2022/01/19 03:24:56;;;;;;;0.80;0.50;;;23.20;43.90;;;;;;5082636;28;20040;-49
2022/01/19 03:27:22;;;;;;;3.13;0.60;;;23.20;44.20;;;;;;5081541;28;20024;-47
2022/01/19 03:29:48;;;;;;;0.60;0.60;;;23.10;44.50;;;;;;5065223;28;20072;-53
2022/01/19 03:32:14;;;;;;;0.90;0.63;;;23.00;44.70;;;;;;5082358;28;20033;-47
2022/01/19 03:34:41;;;;;;;1.55;0.73;;;22.90;44.70;;;;;;5082592;28;20110;-47
2022/01/19 03:37:07;;;;;;;0.50;0.50;;;22.90;44.60;;;;;;5081548;28;20058;-48
2022/01/19 03:39:33;;;;;;;0.93;0.60;;;22.90;44.50;;;;;;5064445;28;20717;-51
2022/01/19 03:42:00;;;;;;;1.13;0.63;;;23.00;44.30;;;;;;5082182;28;20055;-53
2022/01/19 03:44:26;;;;;;;1.10;0.67;;;23.10;44.20;;;;;;5063911;28;20027;-50
2022/01/19 03:47:03;;;;;;;1.50;0.60;;;23.10;44.90;;;;;;5081206;28;20029;-50
2022/01/19 03:49:32;;;;;;;3.70;0.73;;;23.00;44.70;;;;;;5080698;28;20562;-54
2022/01/19 03:52:01;;;;;;;1.50;1.00;;;22.90;44.80;;;;;;5064564;28;20051;-49
2022/01/19 03:54:39;;;;;;;6.57;1.00;;;22.80;44.80;;;;;;5063851;28;20117;-50
2022/01/19 03:57:05;;;;;;;1.50;0.88;;;22.70;45.10;;;;;;5081983;28;20017;-52
2022/01/19 03:59:31;;;;;;;1.38;0.80;;;22.60;45.10;;;;;;5080309;28;20037;-52
2022/01/19 04:01:58;;;;;;;1.13;0.73;;;22.60;45.20;;;;;;5081583;28;20084;-51
2022/01/19 04:05:04;;;;;;;1.73;0.90;;;22.40;45.30;;;;;;5085640;28;20029;-48
2022/01/19 04:07:16;;;;;;;3.55;1.25;;;22.20;45.70;;;;;;5078282;28;20068;-49
2022/01/19 04:09:44;;;;;;;1.30;0.60;;;22.00;46.00;;;;;;5080047;28;20614;-51
2022/01/19 04:12:14;;;;;;;2.47;0.90;;;21.90;46.20;;;;;;5068403;28;20068;-48
2022/01/19 04:14:41;;;;;;;1.52;0.90;;;21.90;46.20;;;;;;5065174;28;20054;-49
2022/01/19 04:17:09;;;;;;;0.90;0.70;;;21.70;46.40;;;;;;5092914;28;20032;-52
2022/01/19 04:19:47;;;;;;;1.42;0.98;;;21.70;46.60;;;;;;5074022;28;20138;-48
2022/01/19 04:22:15;;;;;;;1.77;0.88;;;21.50;46.60;;;;;;5093596;28;20062;-50
2022/01/19 04:24:41;;;;;;;2.25;0.85;;;21.50;46.70;;;;;;5093541;28;20024;-49
2022/01/19 04:29:50;;;;;;;1.35;0.90;;;21.40;46.80;;;;;;5091874;28;20039;-52
2022/01/19 04:32:21;;;;;;;2.90;0.90;;;21.40;46.80;;;;;;5086334;28;20044;-53
2022/01/19 04:34:49;;;;;;;1.95;0.95;;;21.40;46.80;;;;;;5083173;28;20041;-48
2022/01/19 05:06:43;;;;;;;1.20;0.80;;;21.20;46.20;;;;;;5087691;28;20016;-48
2022/01/19 05:09:24;;;;;;;1.20;0.80;;;21.20;46.20;;;;;;5099386;28;20032;-48
2022/01/19 05:14:35;;;;;;;1.80;0.93;;;21.10;46.20;;;;;;5113015;28;20084;-49
2022/01/19 05:17:01;;;;;;;1.75;1.08;;;21.10;46.40;;;;;;5112643;28;20031;-47
2022/01/19 05:19:27;;;;;;;1.35;0.95;;;21.10;46.00;;;;;;5102898;28;20114;-46
2022/01/19 05:21:53;;;;;;;1.25;1.00;;;21.10;45.80;;;;;;5102339;28;20095;-47
2022/01/19 05:24:20;;;;;;;1.17;0.80;;;21.10;46.00;;;;;;5108135;28;20503;-47
2022/01/19 05:26:46;;;;;;;0.80;0.80;;;21.10;46.20;;;;;;5104863;28;20032;-51
2022/01/19 05:29:12;;;;;;;1.20;0.90;;;21.00;46.20;;;;;;5105448;28;20028;-50
2022/01/19 05:31:38;;;;;;;1.90;1.13;;;21.00;46.20;;;;;;5104839;28;20046;-48
2022/01/19 05:34:04;;;;;;;1.13;0.93;;;21.00;46.20;;;;;;5112057;28;20498;-48
2022/01/19 05:36:31;;;;;;;1.27;0.90;;;21.00;46.00;;;;;;5105987;28;20032;-48
2022/01/19 05:38:57;;;;;;;1.40;1.02;;;21.00;45.80;;;;;;5105297;28;20027;-48
2022/01/19 05:41:23;;;;;;;0.95;0.70;;;21.10;45.90;;;;;;5105729;28;20028;-50
2022/01/19 05:43:49;;;;;;;1.00;0.85;;;21.00;46.00;;;;;;5109358;28;20048;-48
2022/01/19 05:46:15;;;;;;;0.98;0.88;;;21.00;46.10;;;;;;5096779;28;20036;-48
2022/01/19 05:48:41;;;;;;;1.60;1.30;;;20.90;46.10;;;;;;5105736;28;20031;-51
2022/01/19 05:51:08;;;;;;;1.88;1.20;;;20.90;46.10;;;;;;5104677;28;20119;-50
2022/01/19 05:53:34;;;;;;;0.95;0.80;;;20.90;45.90;;;;;;5105271;28;20032;-51
2022/01/19 05:56:00;;;;;;;3.25;0.80;;;21.00;45.80;;;;;;5104332;28;20027;-49
2022/01/19 05:58:26;;;;;;;1.50;1.00;;;21.00;45.80;;;;;;5100571;28;20032;-47
2022/01/19 06:00:52;;;;;;;1.10;0.80;;;21.00;46.10;;;;;;5086850;28;20032;-47
2022/01/19 06:03:18;;;;;;;1.83;1.10;;;20.90;46.10;;;;;;5123349;28;20035;-49
2022/01/19 06:05:44;;;;;;;1.25;1.00;;;20.90;46.20;;;;;;5125538;28;20472;-47
2022/01/19 06:08:16;;;;;;;1.20;0.75;;;20.80;46.20;;;;;;5107941;28;20047;-51
2022/01/19 06:10:46;;;;;;;1.10;1.00;;;20.80;46.20;;;;;;5087521;28;20032;-49
2022/01/19 06:13:13;;;;;;;1.88;1.30;;;20.90;45.90;;;;;;5094263;28;20041;-48
2022/01/19 06:15:39;;;;;;;2.20;1.10;;;21.00;45.80;;;;;;5066376;28;20024;-48
2022/01/19 06:18:06;;;;;;;1.15;1.00;;;20.90;45.80;;;;;;5084593;28;20029;-48
2022/01/19 06:20:32;;;;;;;1.45;0.90;;;20.90;46.00;;;;;;5070593;28;20034;-51
2022/01/19 06:22:58;;;;;;;1.50;0.90;;;20.90;46.20;;;;;;5084296;28;21013;-47
2022/01/19 06:25:24;;;;;;;1.70;1.10;;;20.80;46.30;;;;;;5098351;28;20071;-52
2022/01/19 06:27:50;;;;;;;1.20;0.80;;;20.80;46.20;;;;;;5084117;28;20029;-52
2022/01/19 06:30:16;;;;;;;1.55;1.15;;;20.80;45.90;;;;;;5078659;28;20462;-52
2022/01/19 06:32:42;;;;;;;1.92;0.98;;;20.90;45.90;;;;;;5077054;28;20056;-54
2022/01/19 06:35:09;;;;;;;1.10;0.90;;;21.00;45.70;;;;;;5095830;28;20485;-53
2022/01/19 06:37:35;;;;;;;1.58;0.90;;;20.90;46.00;;;;;;5083527;28;20047;-49
2022/01/19 06:40:03;;;;;;;1.40;1.00;;;20.90;46.10;;;;;;5095764;28;20028;-49
2022/01/19 06:42:29;;;;;;;2.83;1.30;;;20.80;46.20;;;;;;5083906;28;20024;-49
2022/01/19 06:44:55;;;;;;;1.33;0.93;;;20.80;46.20;;;;;;5096279;28;20548;-49
2022/01/19 06:47:21;;;;;;;1.58;1.25;;;20.80;46.60;;;;;;5083981;28;20054;-50
2022/01/19 06:49:48;;;;;;;1.55;1.00;;;20.80;45.90;;;;;;5085349;28;20038;-52
2022/01/19 06:52:14;;;;;;;1.30;1.08;;;20.90;45.90;;;;;;5080102;28;20043;-52
2022/01/19 06:54:40;;;;;;;1.30;1.00;;;20.90;45.80;;;;;;5083851;28;20028;-48
2022/01/19 06:57:06;;;;;;;1.50;1.10;;;20.90;46.10;;;;;;5094123;28;20028;-49
2022/01/19 06:59:32;;;;;;;1.50;1.05;;;20.80;46.20;;;;;;5091131;28;20106;-50
2022/01/19 07:01:58;;;;;;;1.77;0.90;;;20.80;46.40;;;;;;5078246;28;20032;-50
2022/01/19 07:04:24;;;;;;;1.63;1.10;;;20.70;46.30;;;;;;5091612;28;20040;-50
2022/01/19 07:06:50;;;;;;;1.38;1.17;;;20.80;46.10;;;;;;5078950;28;20023;-52
2022/01/19 07:09:16;;;;;;;1.23;1.10;;;20.80;46.00;;;;;;5082990;28;20044;-53
2022/01/19 07:11:43;;;;;;;0.95;0.80;;;20.90;45.90;;;;;;5069544;28;20036;-51
2022/01/19 07:14:12;;;;;;;1.33;0.90;;;20.80;46.20;;;;;;5103020;28;20032;-48
2022/01/19 07:16:38;;;;;;;1.05;0.90;;;20.80;46.40;;;;;;5115250;28;20058;-48
2022/01/19 07:19:04;;;;;;;2.05;1.00;;;20.80;46.50;;;;;;5103054;28;21139;-49
2022/01/19 07:21:31;;;;;;;1.80;1.10;;;20.80;46.50;;;;;;5103122;28;20039;-47
2022/01/19 07:23:57;;;;;;;1.70;1.15;;;20.80;46.30;;;;;;5103011;28;20024;-49
2022/01/19 07:26:23;;;;;;;1.50;1.00;;;20.80;46.30;;;;;;5102606;28;20031;-50
2022/01/19 07:28:49;;;;;;;1.13;0.80;;;20.90;46.00;;;;;;5103683;28;20039;-51
2022/01/19 07:31:15;;;;;;;1.63;1.10;;;20.90;46.10;;;;;;5110451;28;20043;-49
2022/01/19 07:33:41;;;;;;;1.45;1.13;;;20.80;46.30;;;;;;5084738;28;20039;-49
2022/01/19 07:36:08;;;;;;;1.77;1.10;;;20.80;46.40;;;;;;5102907;28;20055;-47
2022/01/19 07:38:34;;;;;;;2.03;1.15;;;20.70;46.50;;;;;;5102860;28;20441;-45
2022/01/19 07:41:00;;;;;;;2.65;1.27;;;20.70;46.40;;;;;;5103146;28;20020;-49
2022/01/19 07:43:26;;;;;;;1.88;1.08;;;20.80;46.10;;;;;;5103551;28;20074;-47
2022/01/19 07:45:52;;;;;;;1.65;1.30;;;20.90;46.00;;;;;;5102557;28;20039;-48
2022/01/19 07:48:18;;;;;;;1.10;0.90;;;20.90;45.80;;;;;;5100481;28;20282;-50
2022/01/19 07:50:44;;;;;;;1.48;1.00;;;20.90;46.10;;;;;;5085700;28;20032;-48
2022/01/19 07:53:10;;;;;;;1.25;1.00;;;20.90;46.20;;;;;;5102968;28;20040;-46
2022/01/19 07:55:36;;;;;;;1.80;1.20;;;20.80;46.30;;;;;;5114534;28;20126;-46
2022/01/19 07:58:02;;;;;;;1.33;1.13;;;20.70;46.30;;;;;;5121794;28;20031;-45
2022/01/19 08:00:29;;;;;;;1.58;1.08;;;20.70;46.10;;;;;;5083675;28;20043;-47
2022/01/19 08:02:55;;;;;;;1.60;1.20;;;20.80;46.00;;;;;;5103832;28;20074;-46
2022/01/19 08:05:21;;;;;;;1.67;1.05;;;20.90;45.90;;;;;;5102860;28;20024;-47
2022/01/19 08:07:47;;;;;;;1.70;0.82;;;20.90;45.80;;;;;;5113533;28;20027;-47
2022/01/19 08:10:14;;;;;;;2.80;1.20;;;20.90;46.10;;;;;;5115009;28;20082;-47
2022/01/19 08:12:40;;;;;;;1.88;1.10;;;20.80;46.70;;;;;;5102132;28;20048;-48
2022/01/19 08:15:06;;;;;;;1.13;0.80;;;20.70;46.30;;;;;;5101907;28;20024;-46
2022/01/19 08:17:33;;;;;;;1.43;1.10;;;20.70;46.30;;;;;;5104132;28;20075;-47
2022/01/19 08:19:59;;;;;;;1.47;1.10;;;20.80;46.00;;;;;;5102578;28;20020;-49
2022/01/19 08:22:25;;;;;;;1.65;0.90;;;20.90;45.90;;;;;;5106193;28;20035;-46
2022/01/19 08:24:51;;;;;;;1.67;1.08;;;20.90;45.70;;;;;;5102222;28;20024;-48
2022/01/19 08:27:17;;;;;;;1.48;1.23;;;20.90;46.10;;;;;;5083638;28;20028;-49
2022/01/19 08:29:44;;;;;;;1.60;1.20;;;20.80;46.10;;;;;;5101981;28;20078;-51
2022/01/19 08:32:10;;;;;;;1.75;1.13;;;20.80;46.20;;;;;;5100063;28;20139;-51
2022/01/19 08:34:36;;;;;;;2.00;1.30;;;20.70;46.30;;;;;;5107588;28;20027;-50
2022/01/19 08:37:03;;;;;;;1.47;1.00;;;20.70;45.90;;;;;;5120087;28;20058;-51
2022/01/19 08:39:29;;;;;;;1.88;0.98;;;20.80;45.90;;;;;;5083918;28;20350;-50
2022/01/19 08:41:55;;;;;;;1.50;1.02;;;20.90;45.90;;;;;;5100947;28;20054;-48
2022/01/19 08:44:22;;;;;;;2.60;1.30;;;20.90;45.80;;;;;;5102974;28;20051;-49
2022/01/19 08:46:48;;;;;;;3.97;1.47;;;20.80;46.10;;;;;;5112282;28;20028;-49
2022/01/19 08:49:14;;;;;;;1.70;1.10;;;20.80;46.10;;;;;;5083491;28;20031;-51
2022/01/19 08:51:40;;;;;;;1.45;1.00;;;20.70;46.20;;;;;;5091590;28;20136;-47
2022/01/19 08:54:07;;;;;;;1.00;0.90;;;20.70;46.20;;;;;;5104509;28;20031;-48
2022/01/19 08:56:33;;;;;;;1.65;1.15;;;20.80;46.00;;;;;;5107835;28;20032;-48
2022/01/19 08:58:59;;;;;;;1.90;1.00;;;20.90;45.90;;;;;;5087081;28;20035;-47
2022/01/19 09:01:25;;;;;;;2.10;1.38;;;20.90;45.70;;;;;;5105336;28;20039;-47
2022/01/19 09:03:51;;;;;;;2.03;1.38;;;20.80;46.10;;;;;;5105523;28;20031;-47
2022/01/19 09:06:19;;;;;;;2.05;1.30;;;20.80;46.10;;;;;;5105831;28;20024;-48
2022/01/19 09:08:45;;;;;;;2.10;1.08;;;20.70;46.20;;;;;;5109589;28;20036;-48
2022/01/19 09:11:12;;;;;;;2.00;1.40;;;20.70;46.20;;;;;;5108197;28;20040;-48
2022/01/19 09:13:38;;;;;;;1.75;1.08;;;20.70;45.90;;;;;;5093428;28;20059;-48
2022/01/19 09:16:05;;;;;;;1.93;1.07;;;20.80;45.80;;;;;;5049801;28;20036;-47
2022/01/19 09:18:31;;;;;;;2.05;1.35;;;20.90;45.80;;;;;;5085722;28;20047;-47
2022/01/19 09:20:57;;;;;;;2.20;1.50;;;20.80;46.00;;;;;;5067492;28;20040;-48
2022/01/19 09:23:23;;;;;;;1.75;1.20;;;20.80;46.10;;;;;;5085805;28;20024;-47
2022/01/19 09:25:50;;;;;;;1.60;1.17;;;20.70;46.20;;;;;;5093433;28;20070;-47
2022/01/19 09:28:16;;;;;;;1.95;1.25;;;20.70;46.20;;;;;;5085776;28;20045;-45
2022/01/19 09:30:42;;;;;;;2.42;1.30;;;20.70;45.90;;;;;;5061664;28;20076;-45
2022/01/19 09:33:10;;;;;;;1.90;1.10;;;20.80;45.90;;;;;;5081111;28;20101;-47
2022/01/19 09:36:04;;;;;;;1.13;0.88;;;20.90;45.80;;;;;;5088230;28;20043;-45
2022/01/19 09:38:33;;;;;;;1.98;1.10;;;20.80;46.10;;;;;;5070771;28;20132;-46
2022/01/19 09:40:59;;;;;;;1.85;1.10;;;20.80;46.10;;;;;;5084602;28;20067;-48
2022/01/19 09:43:25;;;;;;;1.67;1.13;;;20.70;46.10;;;;;;5085609;28;20024;-48
2022/01/19 09:45:56;;;;;;;2.00;1.40;;;20.70;46.10;;;;;;5084603;28;20043;-49
2022/01/19 09:48:22;;;;;;;1.60;1.10;;;20.70;45.80;;;;;;5085337;28;20043;-45
2022/01/19 09:50:48;;;;;;;1.92;1.38;;;20.80;45.80;;;;;;5084549;28;20048;-46
2022/01/19 09:53:14;;;;;;;1.27;1.02;;;20.90;45.80;;;;;;5085163;28;20037;-47
2022/01/19 09:55:41;;;;;;;2.30;1.50;;;20.80;46.00;;;;;;5085218;28;20029;-48
2022/01/19 09:58:07;;;;;;;1.33;1.05;;;20.80;46.10;;;;;;5085410;28;20055;-48
2022/01/19 10:00:34;;;;;;;2.38;1.15;;;20.70;46.20;;;;;;5081189;28;20025;-51
2022/01/19 10:03:21;;;;;;;2.78;1.50;;;20.60;46.10;;;;;;5085093;28;20036;-46
2022/01/19 10:06:12;;;;;;;2.47;1.38;;;20.70;45.80;;;;;;5083248;28;20028;-47
2022/01/19 10:08:41;;;;;;;1.60;1.30;;;20.80;45.80;;;;;;5064108;28;20092;-47
2022/01/19 10:11:21;;;;;;;1.40;1.30;;;20.90;45.70;;;;;;5076964;28;20048;-47
2022/01/19 10:17:06;;;;;;;1.40;1.20;;;20.80;46.00;;;;;;5078232;28;20047;-49
2022/01/19 10:19:50;;;;;;;1.80;1.25;;;20.70;46.00;;;;;;5103091;28;20069;-48
2022/01/19 10:22:18;;;;;;;1.52;1.30;;;20.60;46.10;;;;;;5086914;28;20024;-47
2022/01/19 10:24:51;;;;;;;2.33;1.33;;;20.60;46.00;;;;;;5104001;28;20024;-48
2022/01/19 10:27:40;;;;;;;2.03;1.40;;;20.70;45.90;;;;;;5101678;28;20036;-48
2022/01/19 10:30:07;;;;;;;1.85;1.20;;;20.80;45.80;;;;;;5101620;28;20104;-47
2022/01/19 10:32:36;;;;;;;2.25;1.10;;;20.80;46.10;;;;;;5104137;28;20542;-47
2022/01/19 10:35:36;;;;;;;1.65;1.35;;;20.70;46.30;;;;;;5111913;28;20039;-49
2022/01/19 10:38:31;;;;;;;1.98;1.30;;;20.60;46.10;;;;;;5101588;28;20028;-46
2022/01/19 10:41:04;;;;;;;3.30;1.63;;;20.60;46.20;;;;;;5088645;28;20036;-45
2022/01/19 10:43:34;;;;;;;2.33;1.20;;;20.60;45.90;;;;;;5104133;28;20481;-45
2022/01/19 10:46:26;;;;;;;1.48;1.20;;;20.70;45.90;;;;;;5114864;28;20031;-46
2022/01/19 10:49:07;;;;;;;1.92;1.50;;;20.80;45.80;;;;;;5081351;28;20040;-47
2022/01/19 10:51:48;;;;;;;2.70;1.23;;;20.70;46.10;;;;;;5086575;28;20032;-47
2022/01/19 10:54:16;;;;;;;1.45;1.23;;;20.60;46.10;;;;;;5086842;28;20041;-46
2022/01/19 10:56:45;;;;;;;2.60;1.52;;;20.60;46.10;;;;;;5107130;28;20516;-47
2022/01/19 10:59:15;;;;;;;1.85;1.30;;;20.50;46.10;;;;;;5103704;28;20036;-49
2022/01/19 11:01:55;;;;;;;2.88;1.52;;;20.60;46.00;;;;;;5085518;28;20035;-49
2022/01/19 11:04:26;;;;;;;2.40;1.33;;;20.70;45.80;;;;;;5099931;28;20040;-49
2022/01/19 11:07:05;;;;;;;2.08;1.40;;;20.70;45.70;;;;;;5108878;28;20027;-49
2022/01/19 11:09:34;;;;;;;2.50;1.50;;;20.70;46.20;;;;;;5103667;28;20024;-47
2022/01/19 11:12:08;;;;;;;1.55;1.33;;;20.60;46.10;;;;;;5103208;28;20036;-47
2022/01/19 11:14:38;;;;;;;2.15;1.50;;;20.50;46.20;;;;;;5087245;28;20501;-48
2022/01/19 11:17:04;;;;;;;2.15;1.33;;;20.50;46.20;;;;;;5085656;28;20051;-48
2022/01/19 11:19:30;;;;;;;1.58;1.33;;;20.60;45.90;;;;;;5086407;28;20524;-47
2022/01/19 11:22:34;;;;;;;1.70;1.10;;;20.60;45.90;;;;;;5103251;28;20036;-49
2022/01/19 11:25:12;;;;;;;2.38;1.52;;;20.70;45.80;;;;;;5069366;28;20043;-47
2022/01/19 11:27:40;;;;;;;2.15;1.27;;;20.60;46.10;;;;;;5103293;28;20035;-47
2022/01/19 11:30:12;;;;;;;2.17;1.60;;;20.60;46.20;;;;;;5105016;28;20032;-47
2022/01/19 11:32:38;;;;;;;2.65;1.67;;;20.50;46.20;;;;;;5106590;28;20049;-46
2022/01/19 11:35:05;;;;;;;2.75;1.33;;;20.50;46.20;;;;;;5093251;28;20020;-45
2022/01/19 11:37:39;;;;;;;1.80;1.50;;;20.50;45.90;;;;;;5099416;28;20113;-47
2022/01/19 11:40:11;;;;;;;2.25;1.40;;;20.60;45.90;;;;;;5103380;28;20488;-48
2022/01/19 11:42:37;;;;;;;1.83;1.48;;;20.70;45.70;;;;;;5103167;28;20038;-47
2022/01/19 11:45:05;;;;;;;2.00;1.35;;;20.60;46.10;;;;;;5103344;28;20661;-50
2022/01/19 11:47:31;;;;;;;2.03;1.50;;;20.60;46.10;;;;;;5086132;28;20055;-48
2022/01/19 11:50:08;;;;;;;1.77;1.30;;;20.50;46.20;;;;;;5103859;28;20502;-46
2022/01/19 11:52:37;;;;;;;1.92;1.27;;;20.40;46.10;;;;;;5104501;28;20086;-46
2022/01/19 11:55:17;;;;;;;1.98;1.30;;;20.40;46.20;;;;;;5104286;28;20082;-47
2022/01/19 11:57:45;;;;;;;1.90;1.20;;;20.50;46.10;;;;;;5105378;28;20063;-48
2022/01/19 12:00:15;;;;;;;1.70;1.33;;;20.60;46.00;;;;;;5107781;28;20036;-45
2022/01/19 12:02:49;;;;;;;2.97;1.65;;;20.60;45.90;;;;;;5099350;28;20038;-47
2022/01/19 12:05:21;;;;;;;2.08;1.40;;;20.50;46.20;;;;;;5090372;28;20031;-47
2022/01/19 12:07:57;;;;;;;1.67;1.30;;;20.50;46.20;;;;;;5085243;28;20385;-48
2022/01/19 12:10:42;;;;;;;1.77;1.50;;;20.40;46.20;;;;;;5103001;28;20108;-50
2022/01/19 12:13:57;;;;;;;2.63;1.58;;;20.30;46.20;;;;;;5116101;28;20044;-51
2022/01/19 12:19:07;;;;;;;1.98;1.38;;;20.60;46.00;;;;;;5100621;28;20036;-51
2022/01/19 12:22:13;;;;;;;2.45;1.45;;;20.60;46.00;;;;;;5108692;28;20016;-50
2022/01/19 12:24:47;;;;;;;1.42;1.20;;;20.50;46.30;;;;;;5071569;28;20040;-51
2022/01/19 12:27:15;;;;;;;2.95;1.50;;;20.40;46.30;;;;;;5102379;28;20036;-51
2022/01/19 12:29:53;;;;;;;2.40;1.45;;;20.30;46.20;;;;;;5110556;28;20027;-52
2022/01/19 12:32:20;;;;;;;1.92;1.38;;;20.30;46.30;;;;;;5101962;28;20047;-50
2022/01/19 12:34:52;;;;;;;2.65;1.63;;;20.30;46.90;;;;;;5102198;28;20039;-52
2022/01/19 12:37:38;;;;;;;2.15;1.50;;;20.50;46.10;;;;;;5086669;28;20038;-49
2022/01/19 12:40:17;;;;;;;1.98;1.30;;;20.60;46.10;;;;;;5101388;28;20066;-49
2022/01/19 12:42:44;;;;;;;1.83;1.50;;;20.50;46.30;;;;;;5102041;28;20028;-51
2022/01/19 12:45:20;;;;;;;;;;;20.40;46.30;;;;;;5103028;28;20054;-49
2022/01/19 12:47:48;;;;;;;2.28;1.67;;;20.40;46.90;;;;;;5101495;28;19919;-50
2022/01/19 12:50:17;;;;;;;1.70;1.27;;;20.30;46.40;;;;;;5101936;28;20031;-45
2022/01/19 12:52:48;;;;;;;2.38;1.65;;;20.30;46.40;;;;;;5107468;28;20116;-48
2022/01/19 12:55:16;;;;;;;2.05;1.40;;;20.40;46.70;;;;;;5083771;28;20028;-51
2022/01/19 12:57:42;;;;;;;2.67;1.50;;;20.50;46.10;;;;;;5105733;28;20024;-50
2022/01/19 13:00:09;;;;;;;1.90;1.42;;;20.40;46.20;;;;;;5108910;28;20028;-52
2022/01/19 13:02:36;;;;;;;2.15;1.40;;;20.40;46.40;;;;;;5101918;28;20050;-46
2022/01/19 13:05:14;;;;;;;2.33;1.50;;;20.30;46.20;;;;;;5100573;28;20028;-46
2022/01/19 13:07:40;;;;;;;;;;;20.20;46.40;;;;;;5101113;28;20088;-47
2022/01/19 13:10:23;;;;;;;1.63;1.20;;;20.30;46.60;;;;;;5101352;28;19915;-45
2022/01/19 13:13:06;;;;;;;2.05;1.42;;;20.30;46.60;;;;;;5104916;28;20115;-48
2022/01/19 13:15:49;;;;;;;2.78;1.63;;;20.40;46.40;;;;;;5096780;28;20053;-47
2022/01/19 13:18:28;;;;;;;2.53;1.58;;;20.50;46.20;;;;;;5101897;28;20110;-46
2022/01/19 13:20:55;;;;;;;1.73;1.30;;;20.40;46.50;;;;;;5100939;28;20032;-46
2022/01/19 13:23:21;;;;;;;1.73;1.30;;;20.40;46.70;;;;;;5101677;28;20028;-47
2022/01/19 13:26:12;;;;;;;2.63;1.48;;;20.30;46.60;;;;;;5106643;28;20043;-48
2022/01/19 13:28:38;;;;;;;2.78;1.50;;;20.30;46.60;;;;;;5102725;28;20042;-47
2022/01/19 13:31:11;;;;;;;2.08;1.40;;;20.30;46.40;;;;;;5101541;28;20086;-47
2022/01/19 13:33:37;;;;;;;2.95;1.45;;;20.40;46.20;;;;;;5099425;28;20035;-47
2022/01/19 13:36:04;;;;;;;1.48;1.27;;;20.50;46.20;;;;;;5106817;28;20020;-48
2022/01/19 13:38:30;;;;;;;1.95;1.40;;;20.40;46.40;;;;;;5084261;28;20031;-47
2022/01/19 13:41:03;;;;;;;3.38;1.45;;;20.40;46.50;;;;;;5082742;28;20020;-48
2022/01/19 13:43:32;;;;;;;4.45;1.35;;;20.40;46.60;;;;;;5104705;28;20048;-48
2022/01/19 13:46:12;;;;;;;1.75;1.33;;;20.30;46.60;;;;;;5104998;28;20028;-51
2022/01/19 13:48:39;;;;;;;2.00;1.48;;;20.30;46.40;;;;;;5116190;28;20044;-48
2022/01/19 13:51:10;;;;;;;1.50;1.13;;;20.40;46.40;;;;;;5103638;28;20039;-48
2022/01/19 13:53:41;;;;;;;2.20;1.60;;;20.50;46.30;;;;;;5099875;28;20039;-49
2022/01/19 13:56:14;;;;;;;1.42;1.27;;;20.50;46.30;;;;;;5104671;28;20027;-47
2022/01/19 13:58:48;;;;;;;1.83;1.25;;;20.40;46.50;;;;;;5103388;28;20470;-49
2022/01/19 14:01:20;;;;;;;1.98;1.40;;;20.40;46.60;;;;;;5103574;28;20035;-46
2022/01/19 14:03:55;;;;;;;1.85;1.30;;;20.30;46.60;;;;;;5086695;28;20507;-49
2022/01/19 14:06:32;;;;;;;1.70;1.40;;;20.30;46.50;;;;;;5102803;28;20109;-51
2022/01/19 14:09:06;;;;;;;1.10;1.00;;;20.40;46.40;;;;;;5089408;28;20024;-47
2022/01/19 14:11:32;;;;;;;2.45;1.35;;;20.50;46.40;;;;;;5104558;28;20048;-50
2022/01/19 14:14:26;;;;;;;1.70;1.35;;;20.50;46.30;;;;;;5104935;28;20056;-47
2022/01/19 14:16:55;;;;;;;1.70;1.30;;;20.40;46.50;;;;;;5089836;28;20048;-48
2022/01/19 14:19:31;;;;;;;1.98;1.55;;;20.40;46.60;;;;;;5105772;28;20071;-48
2022/01/19 14:22:10;;;;;;;1.50;1.30;;;20.40;46.60;;;;;;5111149;28;20162;-48
2022/01/19 14:24:44;;;;;;;1.83;1.20;;;20.30;46.40;;;;;;5103763;28;20020;-48
2022/01/19 14:27:16;;;;;;;1.55;1.30;;;20.40;46.30;;;;;;5104374;28;20058;-50
2022/01/19 14:30:03;;;;;;;1.60;1.40;;;20.50;46.30;;;;;;5102925;28;20028;-51
2022/01/19 14:32:42;;;;;;;1.85;1.20;;;20.50;46.30;;;;;;5099148;28;20048;-52